sensor_id;sensor_type;location;lat;lon;timestamp;temperature;humidity
23143;DHT22;11740;51.168;4.112;2023-03-23T00:01:13;12.00;1.00
23143;DHT22;11740;51.168;4.112;2023-03-23T00:03:40;12.00;1.00
23143;DHT22;11740;51.168;4.112;2023-03-23T00:06:07;12.00;15.20
23143;DHT22;11740;51.168;4.112;2023-03-23T00:08:34;12.00;6.80
23143;DHT22;11740;51.168;4.112;2023-03-23T00:11:11;12.00;50.70
23143;DHT22;11740;51.168;4.112;2023-03-23T00:13:40;12.00;88.70
23143;DHT22;11740;51.168;4.112;2023-03-23T00:16:07;12.10;84.50
23143;DHT22;11740;51.168;4.112;2023-03-23T00:18:49;12.10;58.40
23143;DHT22;11740;51.168;4.112;2023-03-23T00:21:19;12.10;79.30
23143;DHT22;11740;51.168;4.112;2023-03-23T00:23:53;12.10;99.90
23143;DHT22;11740;51.168;4.112;2023-03-23T00:26:19;12.10;99.90
23143;DHT22;11740;51.168;4.112;2023-03-23T00:28:45;12.00;99.90
23143;DHT22;11740;51.168;4.112;2023-03-23T00:31:11;12.00;99.90
23143;DHT22;11740;51.168;4.112;2023-03-23T00:33:38;12.00;99.90
23143;DHT22;11740;51.168;4.112;2023-03-23T00:36:09;12.00;99.90
23143;DHT22;11740;51.168;4.112;2023-03-23T00:38:37;12.10;39.40
23143;DHT22;11740;51.168;4.112;2023-03-23T00:41:03;12.10;99.90
23143;DHT22;11740;51.168;4.112;2023-03-23T00:43:30;12.10;58.80
23143;DHT22;11740;51.168;4.112;2023-03-23T00:45:56;12.10;99.90
23143;DHT22;11740;51.168;4.112;2023-03-23T00:48:27;12.10;99.90
23143;DHT22;11740;51.168;4.112;2023-03-23T00:50:54;12.10;99.90
23143;DHT22;11740;51.168;4.112;2023-03-23T00:53:20;12.10;99.90
23143;DHT22;11740;51.168;4.112;2023-03-23T00:55:47;12.10;99.90
23143;DHT22;11740;51.168;4.112;2023-03-23T00:58:13;12.10;99.90
23143;DHT22;11740;51.168;4.112;2023-03-23T01:00:40;12.10;99.90
23143;DHT22;11740;51.168;4.112;2023-03-23T01:03:06;12.20;41.60
23143;DHT22;11740;51.168;4.112;2023-03-23T01:05:36;12.20;77.20
23143;DHT22;11740;51.168;4.112;2023-03-23T01:08:02;12.10;99.90
23143;DHT22;11740;51.168;4.112;2023-03-23T01:10:28;12.20;41.40
23143;DHT22;11740;51.168;4.112;2023-03-23T01:13:01;12.10;63.80
23143;DHT22;11740;51.168;4.112;2023-03-23T01:15:27;12.10;40.40
23143;DHT22;11740;51.168;4.112;2023-03-23T01:17:53;12.10;19.80
23143;DHT22;11740;51.168;4.112;2023-03-23T01:20:19;12.10;25.80
23143;DHT22;11740;51.168;4.112;2023-03-23T01:22:45;12.10;18.40
23143;DHT22;11740;51.168;4.112;2023-03-23T01:25:11;12.10;29.10
23143;DHT22;11740;51.168;4.112;2023-03-23T01:27:38;12.10;39.80
23143;DHT22;11740;51.168;4.112;2023-03-23T01:30:05;12.10;99.90
23143;DHT22;11740;51.168;4.112;2023-03-23T01:32:31;12.20;81.60
23143;DHT22;11740;51.168;4.112;2023-03-23T01:34:57;12.20;84.10
23143;DHT22;11740;51.168;4.112;2023-03-23T01:37:23;12.20;92.40
23143;DHT22;11740;51.168;4.112;2023-03-23T01:39:55;12.10;99.90
23143;DHT22;11740;51.168;4.112;2023-03-23T01:42:25;12.10;99.90
23143;DHT22;11740;51.168;4.112;2023-03-23T01:47:22;12.20;83.30
23143;DHT22;11740;51.168;4.112;2023-03-23T01:49:48;12.30;26.30
23143;DHT22;11740;51.168;4.112;2023-03-23T01:52:16;12.20;47.60
23143;DHT22;11740;51.168;4.112;2023-03-23T01:54:51;12.20;53.30
23143;DHT22;11740;51.168;4.112;2023-03-23T01:57:19;12.20;24.50
23143;DHT22;11740;51.168;4.112;2023-03-23T01:59:48;12.20;1.00
23143;DHT22;11740;51.168;4.112;2023-03-23T02:02:15;12.30;1.00
23143;DHT22;11740;51.168;4.112;2023-03-23T02:04:41;12.20;9.50
23143;DHT22;11740;51.168;4.112;2023-03-23T02:07:07;12.20;26.70
23143;DHT22;11740;51.168;4.112;2023-03-23T02:09:34;12.20;8.30
23143;DHT22;11740;51.168;4.112;2023-03-23T02:11:59;12.20;14.00
23143;DHT22;11740;51.168;4.112;2023-03-23T02:14:26;12.20;1.00
23143;DHT22;11740;51.168;4.112;2023-03-23T02:19:30;12.20;1.00
23143;DHT22;11740;51.168;4.112;2023-03-23T02:38:43;12.20;1.00
23143;DHT22;11740;51.168;4.112;2023-03-23T02:41:17;12.20;1.00
23143;DHT22;11740;51.168;4.112;2023-03-23T02:43:46;12.20;1.00
23143;DHT22;11740;51.168;4.112;2023-03-23T02:46:12;12.20;1.00
23143;DHT22;11740;51.168;4.112;2023-03-23T02:48:39;12.20;1.00
23143;DHT22;11740;51.168;4.112;2023-03-23T02:51:07;12.20;1.00
23143;DHT22;11740;51.168;4.112;2023-03-23T02:53:34;12.20;1.00
23143;DHT22;11740;51.168;4.112;2023-03-23T02:56:03;12.10;1.00
23143;DHT22;11740;51.168;4.112;2023-03-23T02:58:30;12.10;1.00
23143;DHT22;11740;51.168;4.112;2023-03-23T03:00:56;12.10;1.00
23143;DHT22;11740;51.168;4.112;2023-03-23T03:03:28;12.20;1.00
23143;DHT22;11740;51.168;4.112;2023-03-23T03:11:08;12.10;1.00
23143;DHT22;11740;51.168;4.112;2023-03-23T03:16:45;12.10;1.00
23143;DHT22;11740;51.168;4.112;2023-03-23T03:19:35;12.10;1.00
23143;DHT22;11740;51.168;4.112;2023-03-23T03:22:03;12.10;1.00
23143;DHT22;11740;51.168;4.112;2023-03-23T03:24:30;12.10;1.00
23143;DHT22;11740;51.168;4.112;2023-03-23T03:26:57;12.10;1.00
23143;DHT22;11740;51.168;4.112;2023-03-23T03:29:25;12.10;1.00
23143;DHT22;11740;51.168;4.112;2023-03-23T03:31:54;12.10;1.00
23143;DHT22;11740;51.168;4.112;2023-03-23T03:34:22;12.10;1.00
23143;DHT22;11740;51.168;4.112;2023-03-23T03:36:49;12.20;1.00
23143;DHT22;11740;51.168;4.112;2023-03-23T03:39:17;12.10;1.00
23143;DHT22;11740;51.168;4.112;2023-03-23T03:41:45;12.10;1.00
23143;DHT22;11740;51.168;4.112;2023-03-23T03:44:11;12.10;43.80
23143;DHT22;11740;51.168;4.112;2023-03-23T03:46:37;12.00;33.80
23143;DHT22;11740;51.168;4.112;2023-03-23T03:49:04;12.00;99.90
23143;DHT22;11740;51.168;4.112;2023-03-23T03:51:32;11.90;99.90
23143;DHT22;11740;51.168;4.112;2023-03-23T03:53:58;11.90;99.90
23143;DHT22;11740;51.168;4.112;2023-03-23T03:56:24;11.90;99.90
23143;DHT22;11740;51.168;4.112;2023-03-23T03:58:51;11.90;99.90
23143;DHT22;11740;51.168;4.112;2023-03-23T04:01:18;11.90;99.90
23143;DHT22;11740;51.168;4.112;2023-03-23T04:03:46;11.90;99.90
23143;DHT22;11740;51.168;4.112;2023-03-23T04:06:12;12.00;69.30
23143;DHT22;11740;51.168;4.112;2023-03-23T04:08:38;11.90;22.40
23143;DHT22;11740;51.168;4.112;2023-03-23T04:11:07;11.90;15.60
23143;DHT22;11740;51.168;4.112;2023-03-23T04:13:33;11.90;1.00
23143;DHT22;11740;51.168;4.112;2023-03-23T04:15:59;12.00;1.00
23143;DHT22;11740;51.168;4.112;2023-03-23T04:18:25;11.90;1.00
23143;DHT22;11740;51.168;4.112;2023-03-23T04:20:51;12.00;1.00
23143;DHT22;11740;51.168;4.112;2023-03-23T04:23:18;11.90;1.00
23143;DHT22;11740;51.168;4.112;2023-03-23T04:25:46;11.90;1.00
23143;DHT22;11740;51.168;4.112;2023-03-23T04:28:13;11.90;1.00
23143;DHT22;11740;51.168;4.112;2023-03-23T04:30:42;12.00;1.00
23143;DHT22;11740;51.168;4.112;2023-03-23T04:33:08;11.90;1.00
23143;DHT22;11740;51.168;4.112;2023-03-23T04:35:43;11.90;1.00
23143;DHT22;11740;51.168;4.112;2023-03-23T04:38:11;12.00;1.00
23143;DHT22;11740;51.168;4.112;2023-03-23T04:40:39;11.90;1.00
23143;DHT22;11740;51.168;4.112;2023-03-23T04:43:06;11.90;1.00
23143;DHT22;11740;51.168;4.112;2023-03-23T04:45:32;11.90;1.00
23143;DHT22;11740;51.168;4.112;2023-03-23T04:47:59;11.90;1.00
23143;DHT22;11740;51.168;4.112;2023-03-23T04:50:29;11.80;1.00
23143;DHT22;11740;51.168;4.112;2023-03-23T04:52:56;11.90;1.00
23143;DHT22;11740;51.168;4.112;2023-03-23T04:55:24;11.80;1.00
23143;DHT22;11740;51.168;4.112;2023-03-23T04:57:50;11.80;1.00
23143;DHT22;11740;51.168;4.112;2023-03-23T05:00:16;11.90;1.00
23143;DHT22;11740;51.168;4.112;2023-03-23T05:02:44;11.80;1.00
23143;DHT22;11740;51.168;4.112;2023-03-23T05:05:12;11.80;1.00
23143;DHT22;11740;51.168;4.112;2023-03-23T05:07:40;11.80;1.00
23143;DHT22;11740;51.168;4.112;2023-03-23T05:10:07;11.80;1.00
23143;DHT22;11740;51.168;4.112;2023-03-23T05:12:34;11.80;1.00
23143;DHT22;11740;51.168;4.112;2023-03-23T05:15:00;11.80;1.00
23143;DHT22;11740;51.168;4.112;2023-03-23T05:17:26;11.70;1.00
23143;DHT22;11740;51.168;4.112;2023-03-23T05:19:52;11.80;1.00
23143;DHT22;11740;51.168;4.112;2023-03-23T05:22:19;11.80;1.00
23143;DHT22;11740;51.168;4.112;2023-03-23T05:24:49;11.80;1.00
23143;DHT22;11740;51.168;4.112;2023-03-23T05:27:17;11.80;1.00
23143;DHT22;11740;51.168;4.112;2023-03-23T05:29:47;11.80;1.00
23143;DHT22;11740;51.168;4.112;2023-03-23T05:32:16;11.70;1.00
23143;DHT22;11740;51.168;4.112;2023-03-23T05:34:44;11.70;1.00
23143;DHT22;11740;51.168;4.112;2023-03-23T05:37:10;11.70;1.00
23143;DHT22;11740;51.168;4.112;2023-03-23T05:39:37;11.70;1.00
23143;DHT22;11740;51.168;4.112;2023-03-23T05:42:03;11.70;1.00
23143;DHT22;11740;51.168;4.112;2023-03-23T05:44:29;11.70;1.00
23143;DHT22;11740;51.168;4.112;2023-03-23T05:46:55;11.70;1.00
23143;DHT22;11740;51.168;4.112;2023-03-23T05:49:21;11.60;1.00
23143;DHT22;11740;51.168;4.112;2023-03-23T05:51:47;11.60;17.80
23143;DHT22;11740;51.168;4.112;2023-03-23T05:54:13;11.60;99.90
23143;DHT22;11740;51.168;4.112;2023-03-23T05:56:39;11.60;99.90
23143;DHT22;11740;51.168;4.112;2023-03-23T05:59:05;11.60;99.90
23143;DHT22;11740;51.168;4.112;2023-03-23T06:01:31;11.60;1.00
23143;DHT22;11740;51.168;4.112;2023-03-23T06:03:57;11.50;99.90
23143;DHT22;11740;51.168;4.112;2023-03-23T06:06:27;11.40;1.00
23143;DHT22;11740;51.168;4.112;2023-03-23T06:08:57;11.30;1.00
23143;DHT22;11740;51.168;4.112;2023-03-23T06:11:23;11.30;1.00
23143;DHT22;11740;51.168;4.112;2023-03-23T06:13:51;11.10;89.10
23143;DHT22;11740;51.168;4.112;2023-03-23T06:16:17;10.90;99.90
23143;DHT22;11740;51.168;4.112;2023-03-23T06:18:44;10.70;1.00
23143;DHT22;11740;51.168;4.112;2023-03-23T06:21:10;10.80;99.90
23143;DHT22;11740;51.168;4.112;2023-03-23T06:23:36;10.80;99.90
23143;DHT22;11740;51.168;4.112;2023-03-23T06:26:03;10.80;99.90
23143;DHT22;11740;51.168;4.112;2023-03-23T06:28:30;10.80;59.30
23143;DHT22;11740;51.168;4.112;2023-03-23T06:31:01;10.80;99.90
23143;DHT22;11740;51.168;4.112;2023-03-23T06:33:28;10.80;99.90
23143;DHT22;11740;51.168;4.112;2023-03-23T06:35:54;10.80;99.90
23143;DHT22;11740;51.168;4.112;2023-03-23T06:38:21;10.80;99.90
23143;DHT22;11740;51.168;4.112;2023-03-23T06:40:47;10.70;99.90
23143;DHT22;11740;51.168;4.112;2023-03-23T06:43:13;10.70;99.90
23143;DHT22;11740;51.168;4.112;2023-03-23T06:45:39;10.60;28.30
23143;DHT22;11740;51.168;4.112;2023-03-23T06:48:05;10.60;99.90
23143;DHT22;11740;51.168;4.112;2023-03-23T06:50:32;10.60;1.00
23143;DHT22;11740;51.168;4.112;2023-03-23T06:52:57;10.50;1.00
23143;DHT22;11740;51.168;4.112;2023-03-23T06:55:23;10.50;1.00
23143;DHT22;11740;51.168;4.112;2023-03-23T06:57:49;10.50;1.00
23143;DHT22;11740;51.168;4.112;2023-03-23T07:00:15;10.50;1.00
23143;DHT22;11740;51.168;4.112;2023-03-23T07:02:41;10.50;99.90
23143;DHT22;11740;51.168;4.112;2023-03-23T07:05:08;10.40;99.90
23143;DHT22;11740;51.168;4.112;2023-03-23T07:07:37;10.40;99.90
23143;DHT22;11740;51.168;4.112;2023-03-23T07:10:04;10.40;99.90
23143;DHT22;11740;51.168;4.112;2023-03-23T07:12:31;10.40;99.90
23143;DHT22;11740;51.168;4.112;2023-03-23T07:14:57;10.40;99.90
23143;DHT22;11740;51.168;4.112;2023-03-23T07:17:22;10.30;99.90
23143;DHT22;11740;51.168;4.112;2023-03-23T07:19:48;10.30;99.10
23143;DHT22;11740;51.168;4.112;2023-03-23T07:22:15;10.30;1.00
23143;DHT22;11740;51.168;4.112;2023-03-23T07:24:41;10.30;1.00
23143;DHT22;11740;51.168;4.112;2023-03-23T07:27:07;10.30;99.90
23143;DHT22;11740;51.168;4.112;2023-03-23T07:29:33;10.20;1.00
23143;DHT22;11740;51.168;4.112;2023-03-23T07:32:01;10.20;1.00
23143;DHT22;11740;51.168;4.112;2023-03-23T07:34:27;10.20;1.00
23143;DHT22;11740;51.168;4.112;2023-03-23T07:36:53;10.20;1.00
23143;DHT22;11740;51.168;4.112;2023-03-23T07:39:19;10.20;1.00
23143;DHT22;11740;51.168;4.112;2023-03-23T07:41:45;10.20;99.90
23143;DHT22;11740;51.168;4.112;2023-03-23T07:44:11;10.20;99.90
23143;DHT22;11740;51.168;4.112;2023-03-23T07:46:36;10.20;99.90
23143;DHT22;11740;51.168;4.112;2023-03-23T07:49:02;10.20;99.90
23143;DHT22;11740;51.168;4.112;2023-03-23T07:51:31;10.20;99.90
23143;DHT22;11740;51.168;4.112;2023-03-23T07:53:57;10.20;1.00
23143;DHT22;11740;51.168;4.112;2023-03-23T07:56:24;10.30;1.00
23143;DHT22;11740;51.168;4.112;2023-03-23T07:58:50;10.30;1.00
23143;DHT22;11740;51.168;4.112;2023-03-23T08:01:16;10.30;1.00
23143;DHT22;11740;51.168;4.112;2023-03-23T08:03:42;10.30;1.00
23143;DHT22;11740;51.168;4.112;2023-03-23T08:06:08;10.30;1.00
23143;DHT22;11740;51.168;4.112;2023-03-23T08:08:35;10.30;1.00
23143;DHT22;11740;51.168;4.112;2023-03-23T08:11:01;10.30;19.30
23143;DHT22;11740;51.168;4.112;2023-03-23T08:13:26;10.30;99.90
23143;DHT22;11740;51.168;4.112;2023-03-23T08:15:53;10.40;99.90
23143;DHT22;11740;51.168;4.112;2023-03-23T08:18:18;10.40;99.90
23143;DHT22;11740;51.168;4.112;2023-03-23T08:20:44;10.50;99.90
23143;DHT22;11740;51.168;4.112;2023-03-23T08:23:10;10.50;99.90
23143;DHT22;11740;51.168;4.112;2023-03-23T08:25:36;10.60;93.00
23143;DHT22;11740;51.168;4.112;2023-03-23T08:28:02;10.70;99.90
23143;DHT22;11740;51.168;4.112;2023-03-23T08:30:29;10.70;1.00
23143;DHT22;11740;51.168;4.112;2023-03-23T08:32:56;10.80;8.80
23143;DHT22;11740;51.168;4.112;2023-03-23T08:35:25;10.80;31.40
23143;DHT22;11740;51.168;4.112;2023-03-23T08:37:51;10.90;1.00
23143;DHT22;11740;51.168;4.112;2023-03-23T08:40:19;11.00;1.00
23143;DHT22;11740;51.168;4.112;2023-03-23T08:42:47;11.10;1.00
23143;DHT22;11740;51.168;4.112;2023-03-23T08:45:15;11.20;1.00
23143;DHT22;11740;51.168;4.112;2023-03-23T08:47:43;11.30;99.90
23143;DHT22;11740;51.168;4.112;2023-03-23T08:50:11;11.30;99.90
23143;DHT22;11740;51.168;4.112;2023-03-23T08:52:38;11.40;99.90
23143;DHT22;11740;51.168;4.112;2023-03-23T08:55:04;11.40;1.00
23143;DHT22;11740;51.168;4.112;2023-03-23T08:57:30;11.50;32.50
23143;DHT22;11740;51.168;4.112;2023-03-23T08:59:56;11.60;40.60
23143;DHT22;11740;51.168;4.112;2023-03-23T09:02:33;11.60;1.00
23143;DHT22;11740;51.168;4.112;2023-03-23T09:04:59;11.70;1.00
23143;DHT22;11740;51.168;4.112;2023-03-23T09:07:27;11.70;1.00
23143;DHT22;11740;51.168;4.112;2023-03-23T09:09:53;11.80;99.90
23143;DHT22;11740;51.168;4.112;2023-03-23T09:12:19;11.80;99.90
23143;DHT22;11740;51.168;4.112;2023-03-23T09:14:45;11.80;99.90
23143;DHT22;11740;51.168;4.112;2023-03-23T09:17:11;11.90;1.00
23143;DHT22;11740;51.168;4.112;2023-03-23T09:19:37;11.90;1.00
23143;DHT22;11740;51.168;4.112;2023-03-23T09:22:03;11.80;99.90
23143;DHT22;11740;51.168;4.112;2023-03-23T09:24:30;11.90;1.00
23143;DHT22;11740;51.168;4.112;2023-03-23T09:26:56;12.00;1.00
23143;DHT22;11740;51.168;4.112;2023-03-23T09:29:24;12.00;1.00
23143;DHT22;11740;51.168;4.112;2023-03-23T09:31:52;12.00;1.00
23143;DHT22;11740;51.168;4.112;2023-03-23T09:34:18;12.10;1.00
23143;DHT22;11740;51.168;4.112;2023-03-23T09:36:44;12.00;1.00
23143;DHT22;11740;51.168;4.112;2023-03-23T09:39:11;12.10;99.90
23143;DHT22;11740;51.168;4.112;2023-03-23T09:50:02;12.40;99.90
23143;DHT22;11740;51.168;4.112;2023-03-23T09:52:39;12.60;99.90
23143;DHT22;11740;51.168;4.112;2023-03-23T09:55:13;12.60;1.00
23143;DHT22;11740;51.168;4.112;2023-03-23T09:58:27;12.60;1.00
23143;DHT22;11740;51.168;4.112;2023-03-23T10:00:43;12.60;1.00
23143;DHT22;11740;51.168;4.112;2023-03-23T10:03:14;12.60;1.00
23143;DHT22;11740;51.168;4.112;2023-03-23T10:05:48;12.60;1.00
23143;DHT22;11740;51.168;4.112;2023-03-23T10:08:17;12.60;1.00
23143;DHT22;11740;51.168;4.112;2023-03-23T10:13:25;12.70;1.00
23143;DHT22;11740;51.168;4.112;2023-03-23T10:16:11;12.80;37.60
23143;DHT22;11740;51.168;4.112;2023-03-23T10:18:43;12.80;1.00
23143;DHT22;11740;51.168;4.112;2023-03-23T10:21:16;12.80;1.00
23143;DHT22;11740;51.168;4.112;2023-03-23T10:28:51;13.00;1.00
23143;DHT22;11740;51.168;4.112;2023-03-23T10:31:22;12.90;1.00
23143;DHT22;11740;51.168;4.112;2023-03-23T10:33:57;12.90;99.90
23143;DHT22;11740;51.168;4.112;2023-03-23T10:36:26;12.90;99.90
23143;DHT22;11740;51.168;4.112;2023-03-23T10:39:01;13.00;1.00
23143;DHT22;11740;51.168;4.112;2023-03-23T10:41:29;13.10;99.90
23143;DHT22;11740;51.168;4.112;2023-03-23T10:43:55;13.00;99.90
23143;DHT22;11740;51.168;4.112;2023-03-23T10:49:10;13.10;99.90
23143;DHT22;11740;51.168;4.112;2023-03-23T10:51:42;13.10;99.90
23143;DHT22;11740;51.168;4.112;2023-03-23T10:54:10;13.10;99.90
23143;DHT22;11740;51.168;4.112;2023-03-23T10:56:37;13.20;99.90
23143;DHT22;11740;51.168;4.112;2023-03-23T10:59:11;13.20;99.90
23143;DHT22;11740;51.168;4.112;2023-03-23T11:01:38;13.40;99.90
23143;DHT22;11740;51.168;4.112;2023-03-23T11:04:10;13.40;99.90
23143;DHT22;11740;51.168;4.112;2023-03-23T11:06:38;13.50;99.90
23143;DHT22;11740;51.168;4.112;2023-03-23T11:09:11;13.50;99.90
23143;DHT22;11740;51.168;4.112;2023-03-23T11:11:40;13.60;99.90
23143;DHT22;11740;51.168;4.112;2023-03-23T11:14:18;13.70;99.90
23143;DHT22;11740;51.168;4.112;2023-03-23T11:16:58;13.70;99.90
23143;DHT22;11740;51.168;4.112;2023-03-23T11:19:29;13.60;99.90
23143;DHT22;11740;51.168;4.112;2023-03-23T11:24:31;13.60;1.00
23143;DHT22;11740;51.168;4.112;2023-03-23T11:27:01;13.60;1.00
23143;DHT22;11740;51.168;4.112;2023-03-23T11:29:32;13.60;1.00
23143;DHT22;11740;51.168;4.112;2023-03-23T11:34:25;13.50;1.00
23143;DHT22;11740;51.168;4.112;2023-03-23T11:37:06;13.40;99.90
23143;DHT22;11740;51.168;4.112;2023-03-23T11:39:45;13.50;99.90
23143;DHT22;11740;51.168;4.112;2023-03-23T11:42:23;13.60;99.90
23143;DHT22;11740;51.168;4.112;2023-03-23T11:45:13;13.70;99.90
23143;DHT22;11740;51.168;4.112;2023-03-23T11:50:29;13.90;1.00
23143;DHT22;11740;51.168;4.112;2023-03-23T11:53:13;14.10;1.00
23143;DHT22;11740;51.168;4.112;2023-03-23T11:58:15;14.00;99.90
23143;DHT22;11740;51.168;4.112;2023-03-23T12:03:14;14.00;99.90
23143;DHT22;11740;51.168;4.112;2023-03-23T12:26:57;13.90;1.00
23143;DHT22;11740;51.168;4.112;2023-03-23T12:32:42;14.00;99.90
23143;DHT22;11740;51.168;4.112;2023-03-23T12:48:37;14.90;1.00
23143;DHT22;11740;51.168;4.112;2023-03-23T12:54:09;15.00;99.90
23143;DHT22;11740;51.168;4.112;2023-03-23T13:00:33;14.80;99.90
23143;DHT22;11740;51.168;4.112;2023-03-23T13:10:57;15.10;99.90
23143;DHT22;11740;51.168;4.112;2023-03-23T13:13:39;15.00;99.90
23143;DHT22;11740;51.168;4.112;2023-03-23T13:16:37;15.10;99.90
23143;DHT22;11740;51.168;4.112;2023-03-23T13:24:44;15.20;99.90
23143;DHT22;11740;51.168;4.112;2023-03-23T13:27:17;15.20;99.90
23143;DHT22;11740;51.168;4.112;2023-03-23T13:29:43;15.50;99.90
23143;DHT22;11740;51.168;4.112;2023-03-23T13:32:15;15.60;99.90
23143;DHT22;11740;51.168;4.112;2023-03-23T13:34:41;15.80;1.00
23143;DHT22;11740;51.168;4.112;2023-03-23T13:37:18;15.80;1.00
23143;DHT22;11740;51.168;4.112;2023-03-23T13:39:53;15.90;1.00
23143;DHT22;11740;51.168;4.112;2023-03-23T13:49:53;15.70;1.00
23143;DHT22;11740;51.168;4.112;2023-03-23T14:10:38;15.90;1.00
23143;DHT22;11740;51.168;4.112;2023-03-23T14:13:09;16.00;1.00
23143;DHT22;11740;51.168;4.112;2023-03-23T14:15:42;15.90;1.00
23143;DHT22;11740;51.168;4.112;2023-03-23T14:18:13;15.80;1.00
23143;DHT22;11740;51.168;4.112;2023-03-23T14:20:40;15.80;1.00
23143;DHT22;11740;51.168;4.112;2023-03-23T14:23:12;15.90;1.00
23143;DHT22;11740;51.168;4.112;2023-03-23T14:25:40;15.90;1.00
23143;DHT22;11740;51.168;4.112;2023-03-23T14:28:16;16.00;1.00
23143;DHT22;11740;51.168;4.112;2023-03-23T14:30:48;16.00;1.00
23143;DHT22;11740;51.168;4.112;2023-03-23T14:33:18;16.30;1.00
23143;DHT22;11740;51.168;4.112;2023-03-23T14:35:45;16.50;1.00
23143;DHT22;11740;51.168;4.112;2023-03-23T14:38:16;16.70;1.00
23143;DHT22;11740;51.168;4.112;2023-03-23T14:40:46;16.80;1.00
23143;DHT22;11740;51.168;4.112;2023-03-23T14:43:14;16.90;1.00
23143;DHT22;11740;51.168;4.112;2023-03-23T14:45:42;16.80;1.00
23143;DHT22;11740;51.168;4.112;2023-03-23T14:48:08;16.60;1.00
23143;DHT22;11740;51.168;4.112;2023-03-23T14:50:51;16.80;1.00
23143;DHT22;11740;51.168;4.112;2023-03-23T14:53:22;17.00;1.00
23143;DHT22;11740;51.168;4.112;2023-03-23T14:55:49;17.00;1.00
23143;DHT22;11740;51.168;4.112;2023-03-23T14:58:17;16.90;1.00
23143;DHT22;11740;51.168;4.112;2023-03-23T15:00:47;16.80;1.00
23143;DHT22;11740;51.168;4.112;2023-03-23T15:03:21;17.00;1.00
23143;DHT22;11740;51.168;4.112;2023-03-23T15:05:49;17.10;1.00
23143;DHT22;11740;51.168;4.112;2023-03-23T15:08:19;17.30;1.00
23143;DHT22;11740;51.168;4.112;2023-03-23T15:10:54;17.60;1.00
23143;DHT22;11740;51.168;4.112;2023-03-23T15:13:22;17.80;1.00
23143;DHT22;11740;51.168;4.112;2023-03-23T15:15:48;17.80;1.00
23143;DHT22;11740;51.168;4.112;2023-03-23T15:18:24;17.70;1.00
23143;DHT22;11740;51.168;4.112;2023-03-23T15:20:54;17.70;1.00
23143;DHT22;11740;51.168;4.112;2023-03-23T15:23:27;17.70;1.00
23143;DHT22;11740;51.168;4.112;2023-03-23T15:25:55;17.70;1.00
23143;DHT22;11740;51.168;4.112;2023-03-23T15:28:27;17.50;1.00
23143;DHT22;11740;51.168;4.112;2023-03-23T15:30:55;17.70;1.00
23143;DHT22;11740;51.168;4.112;2023-03-23T15:33:37;17.70;1.00
23143;DHT22;11740;51.168;4.112;2023-03-23T15:36:08;17.50;1.00
23143;DHT22;11740;51.168;4.112;2023-03-23T15:38:44;17.40;1.00
23143;DHT22;11740;51.168;4.112;2023-03-23T15:41:24;17.40;1.00
23143;DHT22;11740;51.168;4.112;2023-03-23T15:43:55;17.40;1.00
23143;DHT22;11740;51.168;4.112;2023-03-23T15:46:24;17.40;1.00
23143;DHT22;11740;51.168;4.112;2023-03-23T15:51:24;17.30;1.00
23143;DHT22;11740;51.168;4.112;2023-03-23T15:53:51;17.30;1.00
23143;DHT22;11740;51.168;4.112;2023-03-23T15:56:18;17.30;1.00
23143;DHT22;11740;51.168;4.112;2023-03-23T15:58:44;17.30;1.00
23143;DHT22;11740;51.168;4.112;2023-03-23T16:01:13;17.20;1.00
23143;DHT22;11740;51.168;4.112;2023-03-23T16:06:31;17.20;1.00
23143;DHT22;11740;51.168;4.112;2023-03-23T16:08:59;17.10;1.00
23143;DHT22;11740;51.168;4.112;2023-03-23T16:11:27;17.10;1.00
23143;DHT22;11740;51.168;4.112;2023-03-23T16:13:55;17.10;1.00
23143;DHT22;11740;51.168;4.112;2023-03-23T16:16:22;16.80;1.00
23143;DHT22;11740;51.168;4.112;2023-03-23T16:18:54;16.50;1.00
23143;DHT22;11740;51.168;4.112;2023-03-23T16:21:21;16.30;1.00
23143;DHT22;11740;51.168;4.112;2023-03-23T16:23:48;16.30;1.00
23143;DHT22;11740;51.168;4.112;2023-03-23T16:26:15;16.10;40.60
23143;DHT22;11740;51.168;4.112;2023-03-23T16:28:42;16.10;1.50
23143;DHT22;11740;51.168;4.112;2023-03-23T16:31:10;16.20;1.00
23143;DHT22;11740;51.168;4.112;2023-03-23T16:33:37;16.20;24.80
23143;DHT22;11740;51.168;4.112;2023-03-23T16:36:04;16.30;14.10
23143;DHT22;11740;51.168;4.112;2023-03-23T16:38:31;16.30;4.60
23143;DHT22;11740;51.168;4.112;2023-03-23T16:41:14;16.30;20.00
23143;DHT22;11740;51.168;4.112;2023-03-23T16:43:41;16.40;17.90
23143;DHT22;11740;51.168;4.112;2023-03-23T16:46:09;16.30;1.00
23143;DHT22;11740;51.168;4.112;2023-03-23T16:48:36;16.30;6.50
23143;DHT22;11740;51.168;4.112;2023-03-23T16:51:04;16.40;4.10
23143;DHT22;11740;51.168;4.112;2023-03-23T16:53:31;16.40;1.00
23143;DHT22;11740;51.168;4.112;2023-03-23T16:55:58;16.30;1.00
23143;DHT22;11740;51.168;4.112;2023-03-23T16:58:24;16.20;1.00
23143;DHT22;11740;51.168;4.112;2023-03-23T17:00:53;16.10;1.00
23143;DHT22;11740;51.168;4.112;2023-03-23T17:03:20;16.00;1.00
23143;DHT22;11740;51.168;4.112;2023-03-23T17:05:48;16.00;1.00
23143;DHT22;11740;51.168;4.112;2023-03-23T17:08:17;16.00;1.00
23143;DHT22;11740;51.168;4.112;2023-03-23T17:10:44;15.90;1.00
23143;DHT22;11740;51.168;4.112;2023-03-23T17:13:11;15.90;1.00
23143;DHT22;11740;51.168;4.112;2023-03-23T17:15:39;15.90;1.00
23143;DHT22;11740;51.168;4.112;2023-03-23T17:18:10;15.90;1.00
23143;DHT22;11740;51.168;4.112;2023-03-23T17:20:37;15.80;1.00
23143;DHT22;11740;51.168;4.112;2023-03-23T17:23:04;15.80;1.00
23143;DHT22;11740;51.168;4.112;2023-03-23T17:25:31;15.80;1.00
23143;DHT22;11740;51.168;4.112;2023-03-23T17:27:58;15.80;1.00
23143;DHT22;11740;51.168;4.112;2023-03-23T17:30:32;15.80;1.00
23143;DHT22;11740;51.168;4.112;2023-03-23T17:32:59;15.80;1.00
23143;DHT22;11740;51.168;4.112;2023-03-23T17:35:26;15.80;1.00
23143;DHT22;11740;51.168;4.112;2023-03-23T17:37:53;15.80;1.00
23143;DHT22;11740;51.168;4.112;2023-03-23T17:40:20;15.70;1.00
23143;DHT22;11740;51.168;4.112;2023-03-23T17:42:47;15.70;1.00
23143;DHT22;11740;51.168;4.112;2023-03-23T17:45:14;15.70;1.00
23143;DHT22;11740;51.168;4.112;2023-03-23T17:47:41;15.60;1.00
23143;DHT22;11740;51.168;4.112;2023-03-23T17:50:09;15.60;1.00
23143;DHT22;11740;51.168;4.112;2023-03-23T17:52:38;15.60;1.00
23143;DHT22;11740;51.168;4.112;2023-03-23T17:55:07;15.60;1.00
23143;DHT22;11740;51.168;4.112;2023-03-23T17:57:34;15.60;1.00
23143;DHT22;11740;51.168;4.112;2023-03-23T18:00:01;15.50;1.00
23143;DHT22;11740;51.168;4.112;2023-03-23T18:02:28;15.50;1.00
23143;DHT22;11740;51.168;4.112;2023-03-23T18:04:56;15.50;1.00
23143;DHT22;11740;51.168;4.112;2023-03-23T18:07:25;15.50;1.00
23143;DHT22;11740;51.168;4.112;2023-03-23T18:09:56;15.40;1.00
23143;DHT22;11740;51.168;4.112;2023-03-23T18:12:24;15.40;1.00
23143;DHT22;11740;51.168;4.112;2023-03-23T18:14:54;15.40;1.00
23143;DHT22;11740;51.168;4.112;2023-03-23T18:17:22;15.40;1.00
23143;DHT22;11740;51.168;4.112;2023-03-23T18:19:49;15.30;1.00